createdAt,value
2023-02-18T00:00:54.511Z,3.10
2023-02-18T00:05:03.620Z,2.90
2023-02-18T00:09:14.278Z,2.30
2023-02-18T00:13:23.351Z,3.30
2023-02-18T00:17:53.110Z,3.50
2023-02-18T00:21:56.456Z,3.00
2023-02-18T00:26:26.903Z,3.10
2023-02-18T00:30:27.144Z,3.20
2023-02-18T00:34:22.308Z,3.90
2023-02-18T00:38:34.572Z,3.50
2023-02-18T00:42:45.116Z,3.10
2023-02-18T00:46:56.567Z,3.00
2023-02-18T00:51:05.796Z,2.90
2023-02-18T00:55:21.953Z,3.00
2023-02-18T01:03:33.281Z,2.50
2023-02-18T01:08:03.430Z,3.30
2023-02-18T01:12:31.675Z,2.80
2023-02-18T01:17:00.498Z,2.60
2023-02-18T01:21:28.184Z,2.50
2023-02-18T01:25:56.390Z,2.70
2023-02-18T01:30:36.523Z,3.10
2023-02-18T01:35:05.658Z,3.10
2023-02-18T01:39:33.965Z,3.00
2023-02-18T01:44:04.054Z,2.80
2023-02-18T01:48:32.185Z,2.90
2023-02-18T01:53:02.739Z,3.10
2023-02-18T01:57:34.357Z,3.30
2023-02-18T02:02:02.236Z,3.30
2023-02-18T02:06:13.157Z,3.10
2023-02-18T02:10:40.999Z,3.50
2023-02-18T02:15:20.395Z,4.10
2023-02-18T02:19:46.242Z,2.90
2023-02-18T02:24:18.621Z,3.50
2023-02-18T02:28:58.212Z,3.50
2023-02-18T02:33:29.856Z,3.50
2023-02-18T02:38:16.213Z,3.20
2023-02-18T02:42:54.244Z,3.30
2023-02-18T02:47:22.235Z,3.40
2023-02-18T02:52:04.128Z,2.90
2023-02-18T02:56:32.216Z,2.90
2023-02-18T03:00:29.728Z,2.30
2023-02-18T03:04:32.369Z,2.50
2023-02-18T03:08:26.184Z,3.30
2023-02-18T03:12:18.133Z,3.10
2023-02-18T03:20:06.395Z,2.60
2023-02-18T03:23:47.104Z,2.50
2023-02-18T03:27:37.322Z,2.80
2023-02-18T03:31:25.111Z,2.70
2023-02-18T03:35:17.599Z,2.70
2023-02-18T03:39:20.259Z,2.50
2023-02-18T03:43:08.575Z,3.20
2023-02-18T03:46:56.724Z,3.20
2023-02-18T03:50:49.814Z,3.30
2023-02-18T03:54:37.502Z,3.30
2023-02-18T03:58:26.396Z,3.50
2023-02-18T04:02:14.298Z,2.90
2023-02-18T04:06:02.010Z,2.90
2023-02-18T04:09:49.840Z,3.40
2023-02-18T04:13:33.949Z,3.90
2023-02-18T04:17:22.040Z,2.50
2023-02-18T04:21:10.052Z,3.30
2023-02-18T04:25:23.216Z,3.20
2023-02-18T04:29:08.054Z,3.10
2023-02-18T04:32:55.953Z,3.80
2023-02-18T04:36:36.343Z,4.10
2023-02-18T04:40:25.156Z,3.00
2023-02-18T04:44:13.081Z,2.90
2023-02-18T04:48:01.014Z,3.20
2023-02-18T04:51:28.061Z,2.60
2023-02-18T04:55:17.246Z,3.00
2023-02-18T04:59:05.160Z,3.10
2023-02-18T05:02:53.427Z,3.10
2023-02-18T05:06:46.908Z,3.20
2023-02-18T05:10:25.190Z,3.20
2023-02-18T05:14:52.996Z,2.70
2023-02-18T05:18:42.358Z,3.40
2023-02-18T05:22:50.975Z,2.80
2023-02-18T05:26:40.683Z,3.40
2023-02-18T05:31:08.550Z,2.90
2023-02-18T05:35:17.017Z,2.80
2023-02-18T05:39:16.319Z,3.40
2023-02-18T05:43:12.808Z,2.60
2023-02-18T05:47:15.022Z,3.50
2023-02-18T05:51:43.024Z,3.50
2023-02-18T05:56:10.733Z,3.00
2023-02-18T06:00:38.587Z,4.10
2023-02-18T06:05:06.949Z,3.30
2023-02-18T06:09:38.492Z,3.90
2023-02-18T06:14:06.671Z,3.00
2023-02-18T06:18:35.175Z,3.60
2023-02-18T06:23:03.212Z,4.30
2023-02-18T06:27:20.784Z,3.70
2023-02-18T06:31:13.530Z,3.40
2023-02-18T06:35:04.656Z,3.80
2023-02-18T06:38:52.624Z,3.40
2023-02-18T06:42:34.181Z,5.30
2023-02-18T06:46:22.528Z,6.00
2023-02-18T06:50:10.747Z,4.50
2023-02-18T06:53:59.077Z,5.30
2023-02-18T06:57:32.470Z,4.30
2023-02-18T07:01:21.294Z,3.60
2023-02-18T07:04:57.717Z,3.60
2023-02-18T07:08:48.694Z,3.90
2023-02-18T07:12:38.172Z,4.00
2023-02-18T07:16:16.441Z,3.60
2023-02-18T07:20:03.228Z,3.10
2023-02-18T07:23:52.642Z,3.60
2023-02-18T07:27:46.614Z,3.00
2023-02-18T07:31:34.556Z,3.70
2023-02-18T07:35:22.924Z,3.30
2023-02-18T07:39:10.907Z,3.70
2023-02-18T07:42:51.257Z,2.90
2023-02-18T07:46:38.961Z,3.10
2023-02-18T07:50:26.008Z,2.90
2023-02-18T07:54:14.420Z,2.60
2023-02-18T07:58:23.597Z,2.60
2023-02-18T08:02:11.417Z,2.90
2023-02-18T08:05:59.891Z,3.00
2023-02-18T08:09:50.716Z,3.20
2023-02-18T08:13:39.088Z,3.10
2023-02-18T08:17:27.423Z,3.80
2023-02-18T08:21:19.011Z,3.40
2023-02-18T08:25:29.068Z,4.10
2023-02-18T08:29:17.958Z,4.50
2023-02-18T08:33:12.293Z,3.30
2023-02-18T08:37:00.683Z,2.80
2023-02-18T08:40:48.448Z,2.90
2023-02-18T08:44:36.856Z,3.20
2023-02-18T08:48:20.521Z,3.00
2023-02-18T08:52:13.851Z,2.90
2023-02-18T09:00:17.380Z,3.10
2023-02-18T09:04:05.665Z,2.90
2023-02-18T09:07:54.588Z,2.30
2023-02-18T09:11:51.792Z,2.90
2023-02-18T09:15:41.272Z,2.40
2023-02-18T09:19:32.247Z,2.60
2023-02-18T09:23:21.331Z,2.10
2023-02-18T09:27:11.363Z,2.80
2023-02-18T09:31:00.631Z,2.20
2023-02-18T09:34:59.036Z,2.20
2023-02-18T09:38:53.264Z,2.00
2023-02-18T09:42:44.494Z,2.30
2023-02-18T09:46:12.867Z,2.20
2023-02-18T09:49:29.606Z,2.10
2023-02-18T09:53:25.373Z,1.90
2023-02-18T09:56:58.106Z,1.80
2023-02-18T10:00:17.923Z,1.80
2023-02-18T10:04:01.862Z,2.20
2023-02-18T10:06:56.162Z,2.40
2023-02-18T10:10:28.348Z,1.80
2023-02-18T10:14:03.534Z,1.90
2023-02-18T10:17:58.084Z,1.50
2023-02-18T10:21:49.973Z,2.00
2023-02-18T10:25:35.514Z,1.50
2023-02-18T10:29:32.594Z,2.30
2023-02-18T10:33:04.472Z,1.70
2023-02-18T10:37:07.914Z,1.80
2023-02-18T10:41:17.567Z,1.90
2023-02-18T10:44:57.556Z,1.70
2023-02-18T10:48:51.959Z,1.50
2023-02-18T10:52:40.344Z,1.70
2023-02-18T10:56:34.658Z,1.30
2023-02-18T11:00:29.591Z,1.60
2023-02-18T11:04:27.134Z,1.40
2023-02-18T11:08:16.445Z,1.90
2023-02-18T11:12:09.209Z,2.10
2023-02-18T11:15:24.212Z,1.50
2023-02-18T11:18:52.343Z,2.00
2023-02-18T11:22:46.652Z,1.50
2023-02-18T11:26:36.596Z,1.50
2023-02-18T11:30:20.831Z,1.90
2023-02-18T11:34:21.662Z,1.10
2023-02-18T11:38:03.698Z,1.70
2023-02-18T11:41:13.796Z,1.90
2023-02-18T11:45:02.098Z,2.00
2023-02-18T11:48:26.593Z,2.80
2023-02-18T11:52:20.605Z,5.60
2023-02-18T11:56:05.280Z,3.20
2023-02-18T11:59:54.967Z,2.40
2023-02-18T12:03:45.729Z,11.60
2023-02-18T12:07:48.513Z,1.80
2023-02-18T12:12:12.659Z,1.60
2023-02-18T12:15:54.652Z,1.70
2023-02-18T12:20:04.600Z,1.80
2023-02-18T12:23:56.897Z,4.20
2023-02-18T12:27:53.652Z,1.50
2023-02-18T12:32:03.966Z,1.70
2023-02-18T12:35:52.435Z,1.80
2023-02-18T12:39:56.821Z,1.50
2023-02-18T12:43:43.548Z,2.10
2023-02-18T12:47:32.937Z,9.30
2023-02-18T12:51:33.404Z,8.00
2023-02-18T12:55:28.776Z,2.40
2023-02-18T12:59:29.265Z,10.10
2023-02-18T13:03:20.434Z,9.50
2023-02-18T13:07:14.194Z,10.80
2023-02-18T13:11:29.524Z,28.90
2023-02-18T13:15:10.348Z,3.00
2023-02-18T13:19:58.627Z,4.10
2023-02-18T13:24:32.206Z,2.80
2023-02-18T13:29:21.733Z,3.20
2023-02-18T13:34:28.899Z,5.80
2023-02-18T13:39:13.240Z,5.40
2023-02-18T13:44:01.295Z,7.50
2023-02-18T13:48:39.901Z,9.80
2023-02-18T13:53:09.486Z,8.60
2023-02-18T13:57:48.608Z,7.60
2023-02-18T14:02:25.582Z,6.60
2023-02-18T14:08:19.829Z,7.20
2023-02-18T14:11:52.167Z,6.40
2023-02-18T14:16:35.427Z,8.10
2023-02-18T14:21:24.404Z,4.70
2023-02-18T14:26:05.942Z,7.00
2023-02-18T14:30:46.174Z,7.60
2023-02-18T14:35:24.719Z,7.40
2023-02-18T14:40:04.330Z,5.90
2023-02-18T14:44:47.715Z,11.30
2023-02-18T14:52:26.975Z,11.10
2023-02-18T15:00:57.496Z,4.00
2023-02-18T15:04:19.714Z,3.10
2023-02-18T15:12:46.756Z,5.50
2023-02-18T15:17:22.879Z,6.30
2023-02-18T15:22:03.300Z,7.40
2023-02-18T15:25:29.315Z,6.90
2023-02-18T15:29:00.721Z,5.20
2023-02-18T15:32:42.708Z,3.60
2023-02-18T15:36:44.453Z,5.30
2023-02-18T15:40:13.731Z,3.20
2023-02-18T15:43:55.193Z,2.20
2023-02-18T15:47:08.250Z,4.80
2023-02-18T15:51:08.141Z,6.20
2023-02-18T15:55:05.279Z,4.40
2023-02-18T15:58:52.113Z,4.70
2023-02-18T16:02:54.945Z,4.70
2023-02-18T16:06:43.934Z,5.90
2023-02-18T16:10:29.391Z,6.00
2023-02-18T16:14:19.675Z,5.40
2023-02-18T16:18:12.737Z,7.90
2023-02-18T16:21:40.751Z,8.30
2023-02-18T16:25:23.586Z,9.50
2023-02-18T16:28:59.975Z,8.30
2023-02-18T16:32:36.397Z,15.00
2023-02-18T16:36:38.452Z,11.10
2023-02-18T16:40:11.792Z,13.20
2023-02-18T16:43:58.209Z,15.70
2023-02-18T16:48:03.052Z,9.60
2023-02-18T16:52:14.727Z,8.90
2023-02-18T16:56:01.943Z,8.40
2023-02-18T16:59:48.958Z,10.60
2023-02-18T17:04:22.621Z,11.80
2023-02-18T17:09:14.926Z,12.90
2023-02-18T17:13:35.007Z,13.20
2023-02-18T17:18:06.995Z,24.50
2023-02-18T17:22:36.705Z,13.70
2023-02-18T17:27:08.007Z,5.30
2023-02-18T17:35:28.680Z,5.90
2023-02-18T17:39:15.152Z,5.90
2023-02-18T17:43:29.908Z,6.10
2023-02-18T17:48:11.946Z,6.80
2023-02-18T17:52:34.252Z,8.00
2023-02-18T17:56:25.236Z,9.40
2023-02-18T18:00:05.356Z,7.00
2023-02-18T18:03:39.534Z,6.10
2023-02-18T18:07:26.837Z,5.70
2023-02-18T18:11:19.161Z,7.90
